createdAt,value
2022-09-12T00:00:15.944Z,101635.50
2022-09-12T00:00:47.611Z,101633.25
2022-09-12T00:01:21.566Z,101636.72
2022-09-12T00:01:53.203Z,101640.00
2022-09-12T00:02:25.400Z,101635.69
2022-09-12T00:02:58.122Z,101631.19
2022-09-12T00:03:29.620Z,101638.78
2022-09-12T00:04:02.101Z,101640.84
2022-09-12T00:04:33.622Z,101639.19
2022-09-12T00:05:07.440Z,101634.06
2022-09-12T00:05:46.488Z,101635.28
2022-09-12T00:06:22.941Z,101636.72
2022-09-12T00:06:54.899Z,101633.44
2022-09-12T00:07:26.439Z,101629.34
2022-09-12T00:07:58.012Z,101642.47
2022-09-12T00:08:29.685Z,101642.06
2022-09-12T00:09:07.193Z,101642.28
2022-09-12T00:09:39.214Z,101632.63
2022-09-12T00:10:10.757Z,101629.94
2022-09-12T00:10:43.735Z,101632.81
2022-09-12T00:11:15.367Z,101630.56
2022-09-12T00:11:47.210Z,101639.19
2022-09-12T00:12:18.747Z,101632.22
2022-09-12T00:12:50.452Z,101633.84
2022-09-12T00:13:21.943Z,101627.91
2022-09-12T00:13:59.068Z,101625.00
2022-09-12T00:14:30.684Z,101626.03
2022-09-12T00:15:02.233Z,101635.06
2022-09-12T00:15:41.462Z,101630.53
2022-09-12T00:16:33.255Z,101628.47
2022-09-12T00:17:04.856Z,101633.19
2022-09-12T00:17:37.461Z,101628.47
2022-09-12T00:18:12.459Z,101624.00
2022-09-12T00:18:46.712Z,101633.41
2022-09-12T00:19:19.013Z,101630.75
2022-09-12T00:19:50.513Z,101631.34
2022-09-12T00:20:22.037Z,101633.41
2022-09-12T00:20:53.542Z,101632.19
2022-09-12T00:21:26.460Z,101636.47
2022-09-12T00:21:57.970Z,101636.47
2022-09-12T00:22:29.449Z,101630.16
2022-09-12T00:23:01.023Z,101635.50
2022-09-12T00:23:33.352Z,101638.34
2022-09-12T00:24:05.817Z,101634.25
2022-09-12T00:24:37.488Z,101630.16
2022-09-12T00:25:09.209Z,101632.41
2022-09-12T00:25:42.545Z,101629.34
2022-09-12T00:26:14.859Z,101633.66
2022-09-12T00:26:46.423Z,101631.34
2022-09-12T00:27:17.962Z,101632.38
2022-09-12T00:27:49.530Z,101628.31
2022-09-12T00:28:21.135Z,101625.41
2022-09-12T00:28:52.871Z,101627.25
2022-09-12T00:29:24.427Z,101638.53
2022-09-12T00:29:56.177Z,101631.75
2022-09-12T00:30:27.695Z,101637.09
2022-09-12T00:30:59.388Z,101628.06
2022-09-12T00:31:31.363Z,101637.91
2022-09-12T00:32:02.992Z,101632.63
2022-09-12T00:32:34.494Z,101624.00
2022-09-12T00:33:06.026Z,101627.88
2022-09-12T00:33:37.585Z,101624.22
2022-09-12T00:34:09.647Z,101623.78
2022-09-12T00:34:41.559Z,101628.09
2022-09-12T00:35:13.285Z,101629.72
2022-09-12T00:35:50.659Z,101634.22
2022-09-12T00:36:23.846Z,101627.66
2022-09-12T00:36:55.416Z,101632.19
2022-09-12T00:37:26.892Z,101629.50
2022-09-12T00:37:58.429Z,101625.19
2022-09-12T00:38:29.936Z,101621.50
2022-09-12T00:39:01.625Z,101626.44
2022-09-12T00:39:33.163Z,101627.44
2022-09-12T00:40:05.184Z,101624.16
2022-09-12T00:40:37.017Z,101628.47
2022-09-12T00:41:15.708Z,101629.50
2022-09-12T00:41:47.204Z,101628.69
2022-09-12T00:42:18.684Z,101625.19
2022-09-12T00:42:50.185Z,101629.09
2022-09-12T00:43:30.473Z,101621.50
2022-09-12T00:44:23.725Z,101625.97
2022-09-12T00:44:55.222Z,101625.19
2022-09-12T00:45:28.840Z,101622.31
2022-09-12T00:46:20.763Z,101628.88
2022-09-12T00:46:58.262Z,101621.28
2022-09-12T00:47:31.124Z,101618.97
2022-09-12T00:48:04.449Z,101617.34
2022-09-12T00:48:42.195Z,101623.50
2022-09-12T00:49:22.629Z,101613.44
2022-09-12T00:50:13.002Z,101617.34
2022-09-12T00:50:44.581Z,101623.69
2022-09-12T00:51:17.591Z,101619.38
2022-09-12T00:52:04.104Z,101626.16
2022-09-12T00:52:44.977Z,101625.53
2022-09-12T00:53:16.581Z,101620.41
2022-09-12T00:53:49.399Z,101620.00
2022-09-12T00:54:24.910Z,101620.63
2022-09-12T00:55:08.548Z,101612.84
2022-09-12T00:55:42.670Z,101624.31
2022-09-12T00:56:15.894Z,101613.44
2022-09-12T00:56:50.209Z,101617.75
2022-09-12T00:57:24.360Z,101613.22
2022-09-12T00:57:59.487Z,101615.69
2022-09-12T00:58:37.093Z,101622.69
2022-09-12T00:59:18.212Z,101620.22
2022-09-12T00:59:54.272Z,101612.00
2022-09-12T01:00:27.234Z,101615.28
2022-09-12T01:00:58.981Z,101613.66
2022-09-12T01:01:32.578Z,101607.94
2022-09-12T01:02:04.711Z,101614.47
2022-09-12T01:02:36.384Z,101616.75
2022-09-12T01:03:11.593Z,101613.91
2022-09-12T01:03:43.114Z,101611.63
2022-09-12T01:04:15.087Z,101613.03
2022-09-12T01:04:47.925Z,101609.94
2022-09-12T01:05:20.328Z,101618.75
2022-09-12T01:06:13.375Z,101612.41
2022-09-12T01:06:44.952Z,101616.91
2022-09-12T01:07:16.550Z,101615.69
2022-09-12T01:07:50.117Z,101621.63
2022-09-12T01:08:22.143Z,101614.66
2022-09-12T01:08:54.993Z,101616.28
2022-09-12T01:09:26.820Z,101621.44
2022-09-12T01:09:58.367Z,101618.13
2022-09-12T01:10:30.352Z,101615.69
2022-09-12T01:11:01.889Z,101613.22
2022-09-12T01:11:36.689Z,101615.88
2022-09-12T01:12:11.289Z,101613.63
2022-09-12T01:12:43.821Z,101617.31
2022-09-12T01:13:15.389Z,101613.63
2022-09-12T01:13:48.711Z,101612.19
2022-09-12T01:14:20.888Z,101617.31
2022-09-12T01:14:52.556Z,101617.72
2022-09-12T01:15:24.127Z,101616.91
2022-09-12T01:15:57.001Z,101617.94
2022-09-12T01:16:28.714Z,101612.19
2022-09-12T01:17:00.466Z,101619.28
2022-09-12T01:17:44.873Z,101612.72
2022-09-12T01:18:48.729Z,101612.75
2022-09-12T01:19:47.776Z,101611.94
2022-09-12T01:21:06.957Z,101613.34
2022-09-12T01:22:13.541Z,101611.50
2022-09-12T01:22:45.023Z,101610.69
2022-09-12T01:23:49.219Z,101605.75
2022-09-12T01:24:33.308Z,101611.47
2022-09-12T01:25:17.020Z,101606.97
2022-09-12T01:26:39.683Z,101610.03
2022-09-12T01:27:32.434Z,101608.59
2022-09-12T01:28:44.243Z,101609.03
2022-09-12T01:30:09.794Z,101613.31
2022-09-12T01:30:45.844Z,101615.78
2022-09-12T01:31:29.761Z,101616.78
2022-09-12T01:32:15.886Z,101614.31
2022-09-12T01:33:08.909Z,101611.44
2022-09-12T01:33:53.651Z,101617.78
2022-09-12T01:34:43.721Z,101615.91
2022-09-12T01:35:43.141Z,101611.19
2022-09-12T01:36:17.196Z,101609.94
2022-09-12T01:37:33.590Z,101609.31
2022-09-12T01:38:20.167Z,101605.25
2022-09-12T01:39:01.625Z,101603.81
2022-09-12T01:39:40.591Z,101606.31
2022-09-12T01:40:38.354Z,101604.00
2022-09-12T01:41:15.597Z,101603.19
2022-09-12T01:42:21.254Z,101607.28
2022-09-12T01:43:18.390Z,101604.63
2022-09-12T01:43:59.031Z,101604.81
2022-09-12T01:44:45.362Z,101598.25
2022-09-12T01:45:22.332Z,101600.34
2022-09-12T01:46:02.724Z,101601.94
2022-09-12T01:47:10.199Z,101592.91
2022-09-12T01:47:45.668Z,101595.38
2022-09-12T01:48:22.800Z,101595.19
2022-09-12T01:49:07.734Z,101595.78
2022-09-12T01:49:52.394Z,101597.84
2022-09-12T01:50:36.417Z,101593.97
2022-09-12T01:51:20.548Z,101596.63
2022-09-12T01:52:10.066Z,101592.94
2022-09-12T01:52:47.466Z,101594.59
2022-09-12T01:53:42.337Z,101595.81
2022-09-12T01:54:20.863Z,101595.19
2022-09-12T01:55:13.820Z,101591.28
2022-09-12T01:55:56.019Z,101585.97
2022-09-12T01:56:29.809Z,101590.47
2022-09-12T01:57:04.484Z,101585.16
2022-09-12T01:57:41.389Z,101591.69
2022-09-12T01:58:18.031Z,101589.22
2022-09-12T01:58:53.798Z,101581.44
2022-09-12T01:59:38.925Z,101586.75
2022-09-12T02:00:11.977Z,101588.41
2022-09-12T02:01:00.284Z,101588.78
2022-09-12T02:01:33.960Z,101584.03
2022-09-12T02:02:16.286Z,101584.47
2022-09-12T02:02:56.489Z,101579.34
2022-09-12T02:03:32.980Z,101580.38
2022-09-12T02:04:19.630Z,101576.41
2022-09-12T02:04:52.747Z,101579.09
2022-09-12T02:05:31.709Z,101578.84
2022-09-12T02:06:10.247Z,101572.28
2022-09-12T02:06:49.966Z,101578.03
2022-09-12T02:07:27.454Z,101567.81
2022-09-12T02:08:18.063Z,101569.44
2022-09-12T02:08:53.376Z,101566.59
2022-09-12T02:09:34.097Z,101564.38
2022-09-12T02:10:09.913Z,101561.31
2022-09-12T02:10:45.434Z,101562.16
2022-09-12T02:11:16.961Z,101562.16
2022-09-12T02:11:50.609Z,101566.69
2022-09-12T02:12:26.029Z,101561.38
2022-09-12T02:13:01.831Z,101567.53
2022-09-12T02:13:59.035Z,101569.16
2022-09-12T02:14:33.918Z,101569.34
2022-09-12T02:15:08.783Z,101559.31
2022-09-12T02:15:44.339Z,101565.81
2022-09-12T02:16:19.601Z,101557.41
2022-09-12T02:17:01.409Z,101558.44
2022-09-12T02:17:38.148Z,101561.66
2022-09-12T02:18:14.594Z,101553.44
2022-09-12T02:18:51.098Z,101557.13
2022-09-12T02:19:24.964Z,101551.81
2022-09-12T02:20:06.217Z,101548.72
2022-09-12T02:20:48.628Z,101547.31
2022-09-12T02:21:22.515Z,101551.41
2022-09-12T02:21:59.697Z,101556.34
2022-09-12T02:22:31.764Z,101547.94
2022-09-12T02:23:06.347Z,101547.13
2022-09-12T02:23:41.375Z,101555.78
2022-09-12T02:24:14.933Z,101556.81
2022-09-12T02:24:50.856Z,101556.84
2022-09-12T02:25:24.107Z,101559.69
2022-09-12T02:26:04.702Z,101555.56
2022-09-12T02:26:48.361Z,101553.47
2022-09-12T02:27:24.407Z,101550.00
2022-09-12T02:28:09.256Z,101551.44
2022-09-12T02:28:42.640Z,101549.78
2022-09-12T02:29:14.155Z,101547.53
2022-09-12T02:29:45.933Z,101555.91
2022-09-12T02:30:19.394Z,101555.28
2022-09-12T02:30:59.813Z,101551.59
2022-09-12T02:31:46.224Z,101553.44
2022-09-12T02:32:29.703Z,101546.88
2022-09-12T02:33:07.714Z,101541.13
2022-09-12T02:34:08.265Z,101549.25
2022-09-12T02:34:59.675Z,101546.53
2022-09-12T02:35:32.947Z,101539.75
2022-09-12T02:36:24.070Z,101542.81
2022-09-12T02:37:07.908Z,101542.56
2022-09-12T02:38:00.736Z,101538.88
2022-09-12T02:38:39.454Z,101546.41
2022-09-12T02:39:10.950Z,101540.81
2022-09-12T02:39:45.384Z,101542.47
2022-09-12T02:40:17.884Z,101542.66
2022-09-12T02:40:49.459Z,101537.81
2022-09-12T02:41:21.344Z,101536.72
2022-09-12T02:41:55.257Z,101538.56
2022-09-12T02:42:27.094Z,101537.16
2022-09-12T02:42:58.769Z,101542.25
2022-09-12T02:43:30.248Z,101539.56
2022-09-12T02:44:03.511Z,101530.97
2022-09-12T02:44:35.271Z,101537.53
2022-09-12T02:45:07.415Z,101536.53
2022-09-12T02:45:39.069Z,101532.22
2022-09-12T02:46:16.089Z,101535.69
2022-09-12T02:46:50.396Z,101530.44
2022-09-12T02:47:29.193Z,101538.44
2022-09-12T02:48:30.637Z,101528.41
2022-09-12T02:49:02.964Z,101533.16
2022-09-12T02:49:34.552Z,101531.94
2022-09-12T02:50:08.107Z,101527.03
2022-09-12T02:50:40.204Z,101524.97
2022-09-12T02:51:12.212Z,101532.94
2022-09-12T02:51:45.216Z,101527.63
2022-09-12T02:52:16.980Z,101532.75
2022-09-12T02:52:48.767Z,101521.53
2022-09-12T02:53:20.656Z,101529.50
2022-09-12T02:53:53.256Z,101526.44
2022-09-12T02:54:25.132Z,101527.84
2022-09-12T02:54:57.552Z,101528.69
2022-09-12T02:55:30.426Z,101529.28
2022-09-12T02:56:02.949Z,101524.78
2022-09-12T02:56:34.820Z,101523.13
2022-09-12T02:57:19.503Z,101523.72
2022-09-12T02:57:53.521Z,101526.16
2022-09-12T02:58:27.642Z,101531.00
2022-09-12T02:59:05.286Z,101523.47
2022-09-12T02:59:36.847Z,101526.56
2022-09-12T03:00:09.385Z,101522.00
2022-09-12T03:01:11.214Z,101521.69
2022-09-12T03:01:42.747Z,101526.59
2022-09-12T03:02:36.752Z,101530.69
2022-09-12T03:03:31.688Z,101518.84
2022-09-12T03:04:13.046Z,101526.19
2022-09-12T03:05:03.004Z,101515.19
2022-09-12T03:05:41.182Z,101522.13
2022-09-12T03:06:26.060Z,101529.09
2022-09-12T03:07:11.292Z,101523.38
2022-09-12T03:08:02.816Z,101523.75
2022-09-12T03:08:43.426Z,101523.31
2022-09-12T03:09:52.323Z,101518.00
2022-09-12T03:10:41.879Z,101510.63
2022-09-12T03:11:22.777Z,101511.66
2022-09-12T03:12:06.051Z,101511.47
2022-09-12T03:12:55.463Z,101515.56
2022-09-12T03:13:34.144Z,101508.59
2022-09-12T03:14:24.345Z,101509.63
2022-09-12T03:15:09.140Z,101521.28
2022-09-12T03:15:52.179Z,101513.09
2022-09-12T03:16:47.227Z,101512.91
2022-09-12T03:17:31.077Z,101511.50
2022-09-12T03:18:08.469Z,101518.63
2022-09-12T03:19:03.733Z,101515.53
2022-09-12T03:19:59.999Z,101513.09
2022-09-12T03:20:42.120Z,101511.06
2022-09-12T03:21:28.480Z,101511.25
2022-09-12T03:22:02.525Z,101512.91
2022-09-12T03:22:42.909Z,101512.91
2022-09-12T03:23:36.788Z,101518.47
2022-09-12T03:24:26.997Z,101515.78
2022-09-12T03:25:17.981Z,101522.13
2022-09-12T03:26:13.184Z,101515.56
2022-09-12T03:26:48.857Z,101526.59
2022-09-12T03:27:28.351Z,101524.38
2022-09-12T03:28:07.490Z,101517.59
2022-09-12T03:28:39.601Z,101519.06
2022-09-12T03:29:12.098Z,101519.44
2022-09-12T03:29:46.243Z,101524.56
2022-09-12T03:30:17.953Z,101523.31
2022-09-12T03:30:51.518Z,101520.28
2022-09-12T03:31:23.271Z,101520.28
2022-09-12T03:31:56.923Z,101524.97
2022-09-12T03:32:48.512Z,101524.34
2022-09-12T03:33:22.523Z,101527.00
2022-09-12T03:33:54.050Z,101520.03
2022-09-12T03:34:27.048Z,101524.09
2022-09-12T03:34:58.901Z,101523.28
2022-09-12T03:35:30.606Z,101524.09
2022-09-12T03:36:02.341Z,101521.47
2022-09-12T03:36:33.865Z,101516.13
2022-09-12T03:37:05.507Z,101521.25
2022-09-12T03:37:37.135Z,101515.50
2022-09-12T03:38:08.806Z,101520.56
2022-09-12T03:38:40.537Z,101519.19
2022-09-12T03:39:12.467Z,101520.00
2022-09-12T03:39:44.073Z,101514.63
2022-09-12T03:40:15.650Z,101521.09
2022-09-12T03:40:50.305Z,101517.44
2022-09-12T03:41:24.363Z,101514.78
2022-09-12T03:41:56.196Z,101522.13
2022-09-12T03:42:27.713Z,101519.06
2022-09-12T03:42:59.484Z,101513.75
2022-09-12T03:43:31.039Z,101520.72
2022-09-12T03:44:02.986Z,101515.19
2022-09-12T03:44:34.479Z,101519.13
2022-09-12T03:45:06.843Z,101514.00
2022-09-12T03:45:38.840Z,101517.03
2022-09-12T03:46:10.468Z,101514.97
2022-09-12T03:46:42.024Z,101515.41
2022-09-12T03:47:13.533Z,101514.38
2022-09-12T03:47:45.050Z,101516.59
2022-09-12T03:48:16.702Z,101510.84
2022-09-12T03:48:48.346Z,101512.94
2022-09-12T03:49:19.897Z,101513.38
2022-09-12T03:49:52.526Z,101508.66
2022-09-12T03:50:24.075Z,101511.72
2022-09-12T03:50:55.799Z,101507.84
2022-09-12T03:51:27.390Z,101512.09
2022-09-12T03:51:58.914Z,101506.78
2022-09-12T03:52:30.529Z,101507.22
2022-09-12T03:53:02.932Z,101500.25
2022-09-12T03:53:34.873Z,101498.84
2022-09-12T03:54:06.783Z,101503.53
2022-09-12T03:54:39.594Z,101507.03
2022-09-12T03:55:12.049Z,101499.88
2022-09-12T03:55:43.563Z,101497.41
2022-09-12T03:56:15.062Z,101498.63
2022-09-12T03:56:46.937Z,101493.53
2022-09-12T03:57:18.785Z,101498.66
2022-09-12T03:57:53.762Z,101498.66
2022-09-12T03:58:25.794Z,101502.75
2022-09-12T03:58:57.540Z,101501.53
2022-09-12T03:59:29.177Z,101498.88
2022-09-12T04:00:02.025Z,101501.53
2022-09-12T04:00:33.754Z,101498.88
2022-09-12T04:01:13.418Z,101498.25
2022-09-12T04:01:45.112Z,101495.16
2022-09-12T04:02:17.654Z,101504.16
2022-09-12T04:02:53.661Z,101498.66
2022-09-12T04:03:25.277Z,101499.44
2022-09-12T04:03:56.779Z,101494.75
2022-09-12T04:04:28.434Z,101494.97
2022-09-12T04:05:00.109Z,101499.28
2022-09-12T04:05:31.888Z,101498.66
2022-09-12T04:06:03.534Z,101493.31
2022-09-12T04:06:35.606Z,101501.69
2022-09-12T04:07:07.085Z,101492.28
2022-09-12T04:07:38.620Z,101490.88
2022-09-12T04:08:10.144Z,101491.91
2022-09-12T04:08:42.838Z,101494.13
2022-09-12T04:09:14.322Z,101498.03
2022-09-12T04:09:46.054Z,101489.41
2022-09-12T04:10:17.802Z,101495.38
2022-09-12T04:10:49.350Z,101497.81
2022-09-12T04:11:22.409Z,101497.19
2022-09-12T04:11:53.932Z,101495.94
2022-09-12T04:12:25.481Z,101495.13
2022-09-12T04:12:57.137Z,101499.81
2022-09-12T04:13:28.652Z,101495.31
2022-09-12T04:14:00.283Z,101499.25
2022-09-12T04:14:31.779Z,101500.06
2022-09-12T04:15:03.644Z,101495.94
2022-09-12T04:15:35.192Z,101496.78
2022-09-12T04:16:07.464Z,101497.78
2022-09-12T04:16:39.005Z,101489.81
2022-09-12T04:17:10.804Z,101498.66
2022-09-12T04:17:42.341Z,101487.56
2022-09-12T04:18:13.935Z,101501.06
2022-09-12T04:18:46.020Z,101494.94
2022-09-12T04:19:17.616Z,101496.56
2022-09-12T04:19:49.288Z,101495.75
2022-09-12T04:20:20.821Z,101498.44
2022-09-12T04:20:52.287Z,101490.88
2022-09-12T04:21:23.996Z,101493.31
2022-09-12T04:21:55.565Z,101494.56
2022-09-12T04:22:27.261Z,101487.00
2022-09-12T04:22:58.736Z,101497.63
2022-09-12T04:23:30.231Z,101498.66
2022-09-12T04:24:02.034Z,101497.00
2022-09-12T04:24:33.677Z,101490.91
2022-09-12T04:25:05.760Z,101496.41
2022-09-12T04:25:37.422Z,101491.91
2022-09-12T04:26:09.715Z,101495.78
2022-09-12T04:26:41.902Z,101494.97
2022-09-12T04:27:13.477Z,101485.22
2022-09-12T04:27:45.229Z,101486.44
2022-09-12T04:28:16.844Z,101497.25
2022-09-12T04:28:48.760Z,101487.63
2022-09-12T04:29:20.371Z,101486.59
2022-09-12T04:29:51.877Z,101487.00
2022-09-12T04:30:23.428Z,101488.44
2022-09-12T04:30:55.825Z,101482.56
2022-09-12T04:31:27.337Z,101484.59
2022-09-12T04:31:59.042Z,101489.72
2022-09-12T04:32:31.376Z,101494.22
2022-09-12T04:33:07.422Z,101487.25
2022-09-12T04:33:39.816Z,101483.13
2022-09-12T04:34:11.468Z,101492.13
2022-09-12T04:34:43.036Z,101488.44
2022-09-12T04:35:14.642Z,101482.09
2022-09-12T04:35:46.217Z,101484.13
2022-09-12T04:36:17.895Z,101489.50
2022-09-12T04:36:49.479Z,101482.91
2022-09-12T04:37:21.556Z,101490.06
2022-09-12T04:37:53.270Z,101486.44
2022-09-12T04:38:24.762Z,101488.88
2022-09-12T04:38:56.343Z,101481.09
2022-09-12T04:39:28.068Z,101487.25
2022-09-12T04:39:59.658Z,101490.13
2022-09-12T04:40:31.524Z,101488.50
2022-09-12T04:41:19.859Z,101486.47
2022-09-12T04:41:51.937Z,101493.81
2022-09-12T04:42:24.198Z,101489.31
2022-09-12T04:42:56.130Z,101484.44
2022-09-12T04:43:27.681Z,101491.78
2022-09-12T04:44:02.337Z,101485.22
2022-09-12T04:44:33.833Z,101487.47
2022-09-12T04:45:06.330Z,101486.28
2022-09-12T04:45:37.988Z,101485.28
2022-09-12T04:46:11.788Z,101487.53
2022-09-12T04:46:46.713Z,101484.47
2022-09-12T04:47:18.992Z,101494.50
2022-09-12T04:47:50.658Z,101483.84
2022-09-12T04:48:22.205Z,101479.34
2022-09-12T04:48:56.919Z,101485.28
2022-09-12T04:49:28.773Z,101489.81
2022-09-12T04:50:00.301Z,101479.94
2022-09-12T04:50:31.828Z,101487.31
2022-09-12T04:51:10.710Z,101482.63
2022-09-12T04:51:42.625Z,101488.97
2022-09-12T04:52:14.111Z,101485.91
2022-09-12T04:52:52.895Z,101483.22
2022-09-12T04:53:24.492Z,101480.56
2022-09-12T04:53:58.777Z,101481.81
2022-09-12T04:54:30.271Z,101481.19
2022-09-12T04:55:01.805Z,101486.75
2022-09-12T04:55:34.588Z,101486.13
2022-09-12T04:56:08.289Z,101485.31
2022-09-12T04:56:41.610Z,101480.41
2022-09-12T04:57:13.410Z,101478.41
2022-09-12T04:57:44.989Z,101480.22
2022-09-12T04:58:16.507Z,101478.00
2022-09-12T04:58:49.729Z,101479.00
2022-09-12T04:59:21.884Z,101483.31
2022-09-12T04:59:53.369Z,101476.78
2022-09-12T05:00:25.106Z,101476.78
2022-09-12T05:00:56.639Z,101477.22
2022-09-12T05:01:30.024Z,101478.25
2022-09-12T05:02:02.662Z,101475.94
2022-09-12T05:02:34.741Z,101475.19
2022-09-12T05:03:06.472Z,101480.50
2022-09-12T05:03:39.557Z,101478.66
2022-09-12T05:04:13.042Z,101474.38
2022-09-12T05:04:44.786Z,101476.81
2022-09-12T05:05:17.515Z,101480.09
2022-09-12T05:05:51.318Z,101478.47
2022-09-12T05:06:28.995Z,101479.28
2022-09-12T05:07:00.576Z,101478.47
2022-09-12T05:07:32.500Z,101480.94
2022-09-12T05:08:04.029Z,101477.03
2022-09-12T05:08:35.883Z,101478.88
2022-09-12T05:09:09.067Z,101477.66
2022-09-12T05:09:41.707Z,101475.63
2022-09-12T05:10:13.312Z,101473.00
2022-09-12T05:10:45.286Z,101476.69
2022-09-12T05:11:25.482Z,101472.81
2022-09-12T05:12:04.562Z,101473.84
2022-09-12T05:12:37.035Z,101479.97
2022-09-12T05:13:09.622Z,101478.13
2022-09-12T05:13:41.759Z,101476.09
2022-09-12T05:14:13.291Z,101479.38
2022-09-12T05:14:44.806Z,101471.19
2022-09-12T05:15:16.304Z,101473.03
2022-09-12T05:15:55.276Z,101476.09
2022-09-12T05:16:28.751Z,101475.06
2022-09-12T05:17:01.844Z,101477.31
2022-09-12T05:17:33.589Z,101477.13
2022-09-12T05:18:05.216Z,101477.75
2022-09-12T05:18:37.081Z,101471.19
2022-09-12T05:19:11.072Z,101479.19
2022-09-12T05:19:42.693Z,101472.41
2022-09-12T05:20:14.319Z,101481.03
2022-09-12T05:20:45.833Z,101476.53
2022-09-12T05:21:20.560Z,101472.00
2022-09-12T05:21:52.175Z,101476.53
2022-09-12T05:22:23.752Z,101478.16
2022-09-12T05:22:55.845Z,101476.13
2022-09-12T05:23:27.915Z,101474.69
2022-09-12T05:24:02.376Z,101482.28
2022-09-12T05:24:34.016Z,101478.84
2022-09-12T05:25:06.137Z,101474.53
2022-09-12T05:25:37.688Z,101476.16
2022-09-12T05:26:12.719Z,101473.72
2022-09-12T05:26:44.385Z,101479.84
2022-09-12T05:27:16.402Z,101481.09
2022-09-12T05:27:50.537Z,101479.88
2022-09-12T05:28:24.680Z,101476.59
2022-09-12T05:28:56.529Z,101471.06
2022-09-12T05:29:28.132Z,101480.69
2022-09-12T05:29:59.623Z,101480.13
2022-09-12T05:30:31.243Z,101480.72
2022-09-12T05:31:12.686Z,101483.81
2022-09-12T05:31:44.215Z,101476.22
2022-09-12T05:32:15.742Z,101481.97
2022-09-12T05:32:47.249Z,101479.50
2022-09-12T05:33:23.185Z,101479.28
2022-09-12T05:33:57.216Z,101481.16
2022-09-12T05:34:28.706Z,101483.59
2022-09-12T05:35:00.395Z,101481.75
2022-09-12T05:35:33.140Z,101475.41
2022-09-12T05:36:06.885Z,101479.09
2022-09-12T05:36:38.636Z,101478.06
2022-09-12T05:37:10.132Z,101474.38
2022-09-12T05:37:42.932Z,101475.41
2022-09-12T05:38:14.454Z,101480.72
2022-09-12T05:38:46.761Z,101481.34
2022-09-12T05:39:18.597Z,101475.19
2022-09-12T05:39:50.166Z,101479.50
2022-09-12T05:40:21.710Z,101476.22
2022-09-12T05:40:53.545Z,101473.78
2022-09-12T05:41:27.193Z,101475.41
2022-09-12T05:41:58.673Z,101479.53
2022-09-12T05:42:30.491Z,101468.44
2022-09-12T05:43:02.064Z,101475.00
2022-09-12T05:43:34.420Z,101475.41
2022-09-12T05:44:07.516Z,101475.81
2022-09-12T05:44:39.130Z,101468.63
2022-09-12T05:45:10.842Z,101478.50
2022-09-12T05:45:42.661Z,101482.78
2022-09-12T05:46:19.021Z,101477.47
2022-09-12T05:46:51.393Z,101473.75
2022-09-12T05:47:23.518Z,101471.72
2022-09-12T05:47:54.992Z,101479.91
2022-09-12T05:48:26.612Z,101476.63
2022-09-12T05:49:04.118Z,101480.50
2022-09-12T05:49:36.152Z,101477.03
2022-09-12T05:50:10.915Z,101469.41
2022-09-12T05:50:42.616Z,101475.56
2022-09-12T05:51:20.342Z,101480.94
2022-09-12T05:51:51.949Z,101470.66
2022-09-12T05:52:23.713Z,101466.53
2022-09-12T05:52:55.238Z,101472.50
2022-09-12T05:53:28.243Z,101477.81
2022-09-12T05:54:01.154Z,101484.81
2022-09-12T05:54:33.423Z,101477.81
2022-09-12T05:55:05.566Z,101480.25
2022-09-12T05:55:37.140Z,101481.09
2022-09-12T05:56:14.029Z,101485.19
2022-09-12T05:56:46.168Z,101477.16
2022-09-12T05:57:17.673Z,101475.75
2022-09-12T05:57:49.365Z,101481.91
2022-09-12T05:58:21.325Z,101482.72
2022-09-12T05:59:07.077Z,101484.78
2022-09-12T05:59:39.687Z,101485.41
2022-09-12T06:00:12.343Z,101486.22
2022-09-12T06:00:43.814Z,101484.16
2022-09-12T06:01:17.271Z,101490.31
2022-09-12T06:01:49.331Z,101483.72
2022-09-12T06:02:21.679Z,101489.69
2022-09-12T06:02:53.643Z,101483.09
2022-09-12T06:03:25.334Z,101492.31
2022-09-12T06:04:00.822Z,101492.09
2022-09-12T06:04:32.348Z,101491.28
2022-09-12T06:05:04.138Z,101490.47
2022-09-12T06:05:35.943Z,101495.38
2022-09-12T06:06:08.459Z,101492.28
2022-09-12T06:06:42.061Z,101496.00
2022-09-12T06:07:14.798Z,101495.38
2022-09-12T06:07:47.210Z,101492.72
2022-09-12T06:08:18.703Z,101490.81
2022-09-12T06:08:52.088Z,101498.63
2022-09-12T06:09:25.526Z,101491.59
2022-09-12T06:10:00.049Z,101485.22
2022-09-12T06:10:31.575Z,101492.38
2022-09-12T06:11:05.230Z,101489.50
2022-09-12T06:11:40.779Z,101500.63
2022-09-12T06:12:12.255Z,101492.81
2022-09-12T06:12:43.822Z,101487.91
2022-09-12T06:13:15.316Z,101487.91
2022-09-12T06:13:47.093Z,101500.66
2022-09-12T06:14:19.511Z,101500.66
2022-09-12T06:14:51.052Z,101489.75
2022-09-12T06:15:22.876Z,101485.22
2022-09-12T06:15:54.391Z,101496.53
2022-09-12T06:16:28.784Z,101492.81
2022-09-12T06:17:00.510Z,101494.44
2022-09-12T06:17:32.399Z,101489.09
2022-09-12T06:18:04.088Z,101496.91
2022-09-12T06:18:35.985Z,101498.13
2022-09-12T06:19:19.370Z,101495.66
2022-09-12T06:19:51.135Z,101493.19
2022-09-12T06:20:22.817Z,101492.16
2022-09-12T06:20:54.347Z,101495.22
2022-09-12T06:21:26.788Z,101495.00
2022-09-12T06:21:58.960Z,101491.31
2022-09-12T06:22:31.845Z,101496.38
2022-09-12T06:23:03.420Z,101492.91
2022-09-12T06:23:35.495Z,101495.41
2022-09-12T06:24:07.661Z,101497.84
2022-09-12T06:24:39.177Z,101493.94
2022-09-12T06:25:10.694Z,101494.75
2022-09-12T06:25:47.743Z,101491.25
2022-09-12T06:26:22.472Z,101498.47
2022-09-12T06:26:54.128Z,101491.03
2022-09-12T06:27:25.663Z,101494.75
2022-09-12T06:27:57.187Z,101495.13
2022-09-12T06:28:28.889Z,101497.75
2022-09-12T06:29:01.092Z,101495.53
2022-09-12T06:29:32.732Z,101490.78
2022-09-12T06:30:05.252Z,101488.09
2022-09-12T06:30:36.972Z,101485.47
2022-09-12T06:31:20.648Z,101490.59
2022-09-12T06:31:52.350Z,101488.38
2022-09-12T06:32:23.908Z,101486.91
2022-09-12T06:32:56.881Z,101483.84
2022-09-12T06:33:28.419Z,101478.72
2022-09-12T06:34:02.407Z,101488.81
2022-09-12T06:34:34.089Z,101478.31
2022-09-12T06:35:05.768Z,101483.88
2022-09-12T06:35:38.399Z,101491.31
2022-09-12T06:36:13.034Z,101486.56
2022-09-12T06:36:47.165Z,101483.03
2022-09-12T06:37:18.898Z,101487.34
2022-09-12T06:37:50.423Z,101474.56
2022-09-12T06:38:21.929Z,101481.38
2022-09-12T06:38:56.214Z,101488.59
2022-09-12T06:39:28.018Z,101486.28
2022-09-12T06:40:02.001Z,101481.38
2022-09-12T06:40:33.939Z,101483.63
2022-09-12T06:41:07.306Z,101488.97
2022-09-12T06:41:43.512Z,101487.13
2022-09-12T06:42:15.766Z,101483.63
2022-09-12T06:42:56.030Z,101486.94
2022-09-12T06:43:37.322Z,101485.69
2022-09-12T06:44:12.591Z,101481.13
2022-09-12T06:44:44.731Z,101487.28
2022-09-12T06:45:16.846Z,101489.13